Consulta les dades en temps real de l'estació municipal de Aiguafreda
| Hora UTC | 18:35 |
|---|---|
| Temperatura | 15.9 ºC |
| Sòl 15 cm | 13.7 ºC |
| Humitat | 66.7 % |
| Pressió | 1018.8 hPa |
| Pluja | 0.0 mm |
| Velocitat vent | 0.0 km/h |
| Direcció vent | NNE |
| Radiació solar | 0.0 W/m² |
| Temperatura (ºC) | Humitat (%) | Pressió (hPa) | Velocitat vent (km/h) | Precipitació (mm) | Radiació solar (W/m²) | ||||||||||||||
|---|---|---|---|---|---|---|---|---|---|---|---|---|---|---|---|---|---|---|---|
| Hora UTC | Aire | Sòl 15 cm | Humitat | Pressió | Vel. | Dir. | Vel. Max | Dir. | Intent. màx 5 min. | Rad. Sol. | |||||||||
| 00:05 | 5.1 | 3.0 | 91.8 | 1018.4 | 0.0 | NNE | 0.0 | NE | 0.0 | 3.3 | |||||||||
| 00:10 | 5.1 | 2.9 | 91.8 | 1018.4 | 0.0 | NNE | 0.0 | N | 0.0 | 3.7 | |||||||||
| 00:15 | 5.0 | 2.8 | 92.0 | 1018.3 | 0.0 | NNE | 0.0 | NNE | 0.0 | 0.1 | |||||||||
| 00:20 | 5.0 | 2.8 | 92.2 | 1018.3 | 0.0 | NNE | 0.0 | N | 0.0 | 8.7 | |||||||||
| 00:25 | 4.9 | 2.8 | 92.2 | 1018.4 | 0.3 | NE | 6.1 | NE | 0.0 | 0.0 | |||||||||
| 00:30 | 4.8 | 2.9 | 92.1 | 1018.4 | 0.1 | NNE | 3.4 | NNE | 0.0 | 8.8 | |||||||||
| 00:35 | 4.8 | 2.7 | 92.1 | 1018.5 | 0.0 | NNE | 0.0 | SSE | 0.0 | 0.3 | |||||||||
| 00:40 | 4.7 | 2.6 | 92.2 | 1018.4 | 0.0 | NNE | 0.0 | SE | 0.0 | 4.6 | |||||||||
| 00:45 | 4.7 | 2.6 | 92.4 | 1018.4 | 0.0 | NNE | 0.0 | NNW | 0.0 | 1.4 | |||||||||
| 00:50 | 4.7 | 2.4 | 92.4 | 1018.4 | 0.0 | NNE | 0.0 | NNE | 0.0 | 2.5 | |||||||||
| 00:55 | 4.6 | 2.4 | 92.5 | 1018.5 | 0.0 | NNE | 0.0 | NNE | 0.0 | 2.6 | |||||||||
| 01:00 | 4.6 | 2.4 | 92.6 | 1018.5 | 0.0 | NNE | 0.0 | S | 0.0 | 2.4 | |||||||||
| 01:05 | 4.5 | 2.3 | 92.6 | 1018.4 | 0.0 | NNE | 0.0 | NW | 0.0 | 2.2 | |||||||||
| 01:10 | 4.5 | 2.6 | 92.7 | 1018.4 | 0.7 | ENE | 6.1 | NE | 0.0 | 2.4 | |||||||||
| 01:15 | 4.5 | 2.5 | 92.6 | 1018.4 | 0.0 | NNE | 0.0 | NNE | 0.0 | 2.4 | |||||||||
| 01:20 | 4.4 | 2.4 | 92.6 | 1018.4 | 0.1 | ESE | 3.4 | ESE | 0.0 | 2.5 | |||||||||
| 01:25 | 4.4 | 2.2 | 92.8 | 1018.4 | 0.0 | NNE | 0.0 | ESE | 0.0 | 2.3 | |||||||||
| 01:30 | 4.3 | 2.1 | 92.8 | 1018.4 | 0.0 | NNE | 0.0 | ESE | 0.0 | 2.2 | |||||||||
| 01:35 | 4.2 | 2.1 | 92.9 | 1018.3 | 0.0 | NNE | 0.0 | ENE | 0.0 | 2.8 | |||||||||
| 01:40 | 4.1 | 2.0 | 93.0 | 1018.3 | 0.0 | NNE | 0.0 | ENE | 0.0 | 1.7 | |||||||||
| 01:45 | 4.1 | 2.0 | 93.2 | 1018.3 | 0.0 | NNE | 0.0 | NW | 0.0 | 5.1 | |||||||||
| 01:50 | 4.1 | 2.0 | 93.3 | 1018.3 | 0.0 | NNE | 0.0 | E | 0.0 | 1.0 | |||||||||
| 01:55 | 4.0 | 1.9 | 93.3 | 1018.3 | 0.0 | NNE | 0.0 | NE | 0.0 | 8.2 | |||||||||
| 02:00 | 3.9 | 1.8 | 93.5 | 1018.3 | 0.0 | NNE | 0.0 | NE | 0.0 | 1.3 | |||||||||
| 02:05 | 3.9 | 1.8 | 93.6 | 1018.2 | 0.0 | NNE | 0.0 | NE | 0.0 | 2.2 | |||||||||
| 02:10 | 3.8 | 1.8 | 93.7 | 1018.3 | 0.0 | NNE | 0.0 | NE | 0.0 | 0.0 | |||||||||
| 02:15 | 3.8 | 1.7 | 93.8 | 1018.3 | 0.0 | NNE | 0.0 | NNE | 0.0 | 6.5 | |||||||||
| 02:20 | 3.8 | 1.7 | 93.9 | 1018.2 | 0.0 | NNE | 0.0 | NNE | 0.0 | 5.1 | |||||||||
| 02:25 | 3.7 | 1.7 | 93.8 | 1018.3 | 0.0 | NNE | 0.0 | NNE | 0.0 | 4.2 | |||||||||
| 02:30 | 3.6 | 1.7 | 94.0 | 1018.2 | 0.0 | NNE | 0.0 | SW | 0.0 | 8.9 | |||||||||
| 02:35 | 3.6 | 1.6 | 94.0 | 1018.3 | 0.0 | NNE | 0.0 | SW | 0.0 | 2.8 | |||||||||
| 02:40 | 3.6 | 1.5 | 94.1 | 1018.3 | 0.0 | NNE | 0.0 | SW | 0.0 | 7.0 | |||||||||
| 02:45 | 3.6 | 1.4 | 94.3 | 1018.3 | 0.0 | NNE | 0.0 | SW | 0.0 | 1.3 | |||||||||
| 02:50 | 3.5 | 1.4 | 94.3 | 1018.3 | 0.0 | NNE | 0.0 | NNW | 0.0 | 7.8 | |||||||||
| 02:55 | 3.5 | 1.4 | 94.3 | 1018.3 | 0.0 | NNE | 0.0 | NE | 0.0 | 0.1 | |||||||||
| 03:00 | 3.4 | 1.4 | 94.4 | 1018.3 | 0.0 | NNE | 0.0 | NNE | 0.0 | 7.9 | |||||||||
| 03:05 | 3.4 | 1.3 | 94.5 | 1018.2 | 0.0 | NNE | 0.0 | NNE | 0.0 | 0.0 | |||||||||
| 03:10 | 3.4 | 1.3 | 94.5 | 1018.2 | 0.0 | NNE | 0.0 | NNE | 0.0 | 0.2 | |||||||||
| 03:15 | 3.3 | 1.3 | 94.6 | 1018.2 | 0.0 | NNE | 0.0 | NNE | 0.0 | 1.2 | |||||||||
| 03:20 | 3.3 | 1.3 | 94.7 | 1018.2 | 0.0 | NNE | 0.0 | NE | 0.0 | 5.5 | |||||||||
| 03:25 | 3.3 | 1.2 | 94.7 | 1018.3 | 0.0 | NNE | 0.0 | SSE | 0.0 | 3.1 | |||||||||
| 03:30 | 3.3 | 1.2 | 94.8 | 1018.3 | 0.0 | NNE | 0.0 | ESE | 0.0 | 4.4 | |||||||||
| 03:35 | 3.2 | 1.1 | 94.8 | 1018.3 | 0.0 | NNE | 0.0 | E | 0.0 | 4.8 | |||||||||
| 03:40 | 3.2 | 1.1 | 94.8 | 1018.3 | 0.0 | NNE | 0.0 | E | 0.0 | 1.8 | |||||||||
| 03:45 | 3.1 | 1.1 | 94.8 | 1018.3 | 0.0 | NNE | 0.0 | NE | 0.0 | 7.5 | |||||||||
| 03:50 | 3.1 | 1.1 | 94.9 | 1018.3 | 0.0 | NNE | 0.0 | N | 0.0 | 0.0 | |||||||||
| 03:55 | 3.1 | 1.1 | 94.9 | 1018.4 | 0.0 | NNE | 0.0 | N | 0.0 | 11.3 | |||||||||
| 04:00 | 3.0 | 1.0 | 94.7 | 1018.4 | 0.0 | NNE | 0.0 | N | 0.0 | 0.0 | |||||||||
| 04:05 | 3.0 | 0.9 | 95.0 | 1018.4 | 0.0 | NNE | 0.0 | S | 0.0 | 0.0 | |||||||||
| 04:10 | 3.0 | 0.9 | 95.0 | 1018.4 | 0.0 | NNE | 0.0 | SE | 0.0 | 0.0 | |||||||||
| 04:15 | 3.0 | 0.8 | 95.1 | 1018.4 | 0.0 | NNE | 0.0 | E | 0.0 | 8.8 | |||||||||
| 04:20 | 2.9 | 0.9 | 95.1 | 1018.4 | 0.0 | NNE | 0.0 | NNW | 0.0 | 0.0 | |||||||||
| 04:25 | 2.9 | 0.8 | 95.2 | 1018.4 | 0.0 | NNE | 0.0 | NNW | 0.0 | 7.3 | |||||||||
| 04:30 | 2.9 | 0.8 | 95.2 | 1018.4 | 0.0 | NNE | 0.0 | NNW | 0.0 | 1.3 | |||||||||
| 04:35 | 2.9 | 0.7 | 95.2 | 1018.3 | 0.0 | NNE | 0.0 | NNW | 0.0 | 9.9 | |||||||||
| 04:40 | 2.9 | 0.7 | 95.2 | 1018.3 | 0.0 | NNE | 0.0 | NNW | 0.0 | 1.9 | |||||||||
| 04:45 | 2.8 | 0.7 | 95.3 | 1018.3 | 0.0 | NNE | 0.0 | NNW | 0.0 | 5.9 | |||||||||
| 04:50 | 2.8 | 0.6 | 95.4 | 1018.4 | 0.0 | NNE | 0.0 | NW | 0.0 | 1.4 | |||||||||
| 04:55 | 2.8 | 0.7 | 95.4 | 1018.4 | 0.0 | SW | 3.4 | SW | 0.0 | 7.6 | |||||||||
| 05:00 | 2.9 | 0.9 | 95.4 | 1018.3 | 0.0 | NNE | 0.0 | W | 0.0 | 5.2 | |||||||||
| 05:05 | 2.9 | 0.9 | 95.4 | 1018.4 | 0.2 | SE | 3.4 | SE | 0.0 | 2.4 | |||||||||
| 05:10 | 2.9 | 0.8 | 95.4 | 1018.5 | 0.0 | NNE | 0.0 | SSE | 0.0 | 0.1 | |||||||||
| 05:15 | 2.9 | 0.8 | 95.5 | 1018.4 | 0.0 | NNE | 0.0 | W | 0.0 | 4.2 | |||||||||
| 05:20 | 3.0 | 1.0 | 95.4 | 1018.4 | 0.0 | NNE | 0.0 | W | 0.0 | 6.5 | |||||||||
| 05:25 | 2.9 | 0.9 | 95.3 | 1018.5 | 0.0 | NNE | 0.0 | NE | 0.0 | 4.2 | |||||||||
| 05:30 | 2.9 | 0.8 | 95.4 | 1018.5 | 0.0 | NNE | 0.0 | NE | 0.0 | 10.5 | |||||||||
| 05:35 | 3.0 | 0.8 | 95.4 | 1018.5 | 0.0 | NNE | 0.0 | NE | 0.0 | 1.4 | |||||||||
| 05:40 | 2.9 | 0.9 | 95.4 | 1018.6 | 0.0 | NNE | 0.0 | NE | 0.0 | 12.6 | |||||||||
| 05:45 | 2.9 | 1.0 | 95.3 | 1018.6 | 0.0 | NNE | 0.0 | NW | 0.0 | 0.0 | |||||||||
| 05:50 | 3.0 | 1.0 | 95.3 | 1018.7 | 0.0 | NNE | 0.0 | NW | 0.0 | 15.2 | |||||||||
| 05:55 | 3.0 | 1.1 | 95.4 | 1018.7 | 0.0 | NNE | 0.0 | WNW | 0.0 | 0.2 | |||||||||
| 06:00 | 3.0 | 1.2 | 95.2 | 1018.8 | 0.0 | NNE | 0.0 | NNE | 0.0 | 16.2 | |||||||||
| 06:05 | 3.1 | 1.2 | 95.2 | 1018.9 | 0.0 | NNE | 0.0 | ENE | 0.0 | 0.0 | |||||||||
| 06:10 | 3.2 | 1.4 | 95.3 | 1018.9 | 0.0 | NNE | 0.0 | ENE | 0.0 | 0.3 | |||||||||
| 06:15 | 3.3 | 1.6 | 95.4 | 1019.0 | 0.0 | NNE | 0.0 | ENE | 0.0 | 6.8 | |||||||||
| 06:20 | 3.4 | 1.7 | 95.4 | 1019.0 | 0.0 | NNE | 0.0 | ENE | 0.0 | 12.3 | |||||||||
| 06:25 | 3.6 | 1.9 | 95.5 | 1019.1 | 0.0 | NNE | 0.0 | SSW | 0.0 | 8.0 | |||||||||
| 06:30 | 3.8 | 2.2 | 95.5 | 1019.1 | 0.0 | NNE | 0.0 | S | 0.0 | 13.4 | |||||||||
| 06:35 | 3.9 | 2.4 | 95.3 | 1019.1 | 0.0 | NNE | 0.0 | S | 0.0 | 32.2 | |||||||||
| 06:40 | 4.1 | 2.6 | 95.1 | 1019.1 | 0.0 | NNE | 0.0 | SSE | 0.0 | 75.7 | |||||||||
| 06:45 | 4.5 | 2.8 | 95.3 | 1019.0 | 0.0 | NNE | 0.0 | SSE | 0.0 | 35.2 | |||||||||
| 06:50 | 5.1 | 3.1 | 94.6 | 1019.0 | 0.0 | NNE | 0.0 | SE | 0.0 | 20.9 | |||||||||
| 06:55 | 5.7 | 3.4 | 93.5 | 1019.0 | 0.0 | NNE | 0.0 | ESE | 0.0 | 51.1 | |||||||||
| 07:00 | 6.1 | 3.6 | 92.8 | 1019.0 | 0.0 | NNE | 0.0 | SE | 0.0 | 20.6 | |||||||||
| 07:05 | 6.4 | 4.0 | 92.5 | 1019.1 | 0.0 | NNE | 0.0 | SE | 0.0 | 97.9 | |||||||||
| 07:10 | 6.9 | 4.5 | 91.9 | 1019.1 | 0.1 | SSE | 3.4 | SSE | 0.0 | 184.6 | |||||||||
| 07:15 | 7.6 | 5.0 | 91.0 | 1019.1 | 0.0 | NNE | 0.0 | SE | 0.0 | 61.3 | |||||||||
| 07:20 | 8.3 | 5.6 | 89.2 | 1019.1 | 2.1 | NE | 8.8 | NNW | 0.0 | 46.0 | |||||||||
| 07:25 | 9.1 | 6.2 | 85.2 | 1019.1 | 2.8 | NE | 11.5 | NE | 0.0 | 188.0 | |||||||||
| 07:30 | 9.6 | 6.7 | 82.0 | 1019.1 | 4.5 | NE | 14.2 | NE | 0.0 | 345.2 | |||||||||
| 07:35 | 9.7 | 7.3 | 80.8 | 1019.2 | 4.0 | NE | 11.5 | NE | 0.0 | 351.2 | |||||||||
| 07:40 | 9.9 | 7.9 | 80.1 | 1019.2 | 3.8 | ENE | 11.5 | ENE | 0.0 | 359.3 | |||||||||
| 07:45 | 10.6 | 8.8 | 78.3 | 1019.3 | 2.7 | NE | 8.8 | NE | 0.0 | 379.0 | |||||||||
| 07:50 | 11.5 | 10.0 | 73.9 | 1019.3 | 5.8 | NE | 11.5 | NNE | 0.0 | 395.0 | |||||||||
| 07:55 | 12.0 | 10.9 | 71.6 | 1019.3 | 4.0 | NE | 11.5 | N | 0.0 | 410.6 | |||||||||
| 08:00 | 12.5 | 11.7 | 70.3 | 1019.3 | 3.5 | NE | 8.8 | N | 0.0 | 365.2 | |||||||||
| 08:05 | 12.9 | 12.4 | 68.5 | 1019.3 | 4.7 | ENE | 11.5 | ENE | 0.0 | 433.0 | |||||||||
| 08:10 | 13.2 | 13.3 | 67.8 | 1019.3 | 5.6 | ENE | 8.8 | E | 0.0 | 319.4 | |||||||||
| 08:15 | 13.7 | 14.4 | 66.5 | 1019.3 | 1.3 | E | 8.8 | ENE | 0.0 | 316.5 | |||||||||
| 08:20 | 14.4 | 15.1 | 64.2 | 1019.4 | 1.2 | E | 8.8 | E | 0.0 | 288.9 | |||||||||
| 08:25 | 14.6 | 16.5 | 63.3 | 1019.4 | 4.4 | ENE | 11.5 | NE | 0.0 | 306.1 | |||||||||
| 08:30 | 14.8 | 17.6 | 61.5 | 1019.3 | 3.8 | NE | 11.5 | N | 0.0 | 351.9 | |||||||||
| 08:35 | 15.0 | 18.4 | 60.4 | 1019.3 | 3.4 | ENE | 11.5 | N | 0.0 | 360.6 | |||||||||
| 08:40 | 15.3 | 19.3 | 59.9 | 1019.2 | 4.8 | NE | 11.5 | NE | 0.0 | 410.6 | |||||||||
| 08:45 | 15.7 | 20.1 | 58.6 | 1019.2 | 2.9 | NE | 14.2 | E | 0.0 | 394.2 | |||||||||
| 08:50 | 15.8 | 20.3 | 57.0 | 1019.3 | 6.0 | NE | 16.9 | NNE | 0.0 | 393.9 | |||||||||
| 08:55 | 15.9 | 20.3 | 55.9 | 1019.2 | 4.3 | NE | 14.2 | NNE | 0.0 | 356.2 | |||||||||
| 09:00 | 16.0 | 20.4 | 54.2 | 1019.1 | 6.5 | NNE | 14.2 | NNE | 0.0 | 488.0 | |||||||||
| 09:05 | 16.1 | 20.3 | 53.2 | 1019.3 | 6.9 | N | 14.2 | N | 0.0 | 521.3 | |||||||||
| 09:10 | 16.4 | 21.1 | 52.7 | 1019.3 | 4.0 | NNE | 11.5 | N | 0.0 | 592.1 | |||||||||
| 09:15 | 16.8 | 21.8 | 50.4 | 1019.2 | 4.4 | N | 8.8 | N | 0.0 | 667.4 | |||||||||
| 09:20 | 17.3 | 22.6 | 49.2 | 1019.3 | 1.7 | ENE | 8.8 | ENE | 0.0 | 668.7 | |||||||||
| 09:25 | 18.0 | 23.3 | 46.1 | 1019.2 | 0.0 | NNE | 0.0 | ENE | 0.0 | 691.5 | |||||||||
| 09:30 | 18.3 | 23.6 | 44.8 | 1019.1 | 1.7 | SSE | 8.8 | SSE | 0.0 | 656.8 | |||||||||
| 09:35 | 18.4 | 24.2 | 42.7 | 1019.2 | 0.2 | SSE | 3.4 | SSE | 0.0 | 539.5 | |||||||||
| 09:40 | 18.8 | 25.1 | 41.8 | 1019.1 | 0.0 | NNE | 0.0 | SSE | 0.0 | 598.6 | |||||||||
| 09:45 | 19.3 | 26.0 | 42.4 | 1019.0 | 2.2 | SSE | 8.8 | ESE | 0.0 | 560.4 | |||||||||
| 09:50 | 19.4 | 26.1 | 38.7 | 1019.0 | 0.0 | NNE | 0.0 | W | 0.0 | 591.9 | |||||||||
| 09:55 | 19.4 | 25.0 | 38.5 | 1018.9 | 4.1 | SSE | 11.5 | SSE | 0.0 | 548.6 | |||||||||
| 10:00 | 19.5 | 25.4 | 38.9 | 1019.1 | 6.7 | S | 14.2 | SW | 0.0 | 613.0 | |||||||||
| 10:05 | 19.4 | 24.8 | 38.2 | 1019.0 | 8.3 | SSE | 16.9 | SSE | 0.0 | 666.9 | |||||||||
| 10:10 | 19.3 | 25.1 | 36.8 | 1018.9 | 7.4 | S | 14.2 | SSE | 0.0 | 622.6 | |||||||||
| 10:15 | 19.7 | 25.6 | 31.0 | 1018.9 | 7.4 | S | 14.2 | SSE | 0.0 | 572.6 | |||||||||
| 10:20 | 19.7 | 25.0 | 29.7 | 1019.0 | 9.1 | SE | 16.9 | SE | 0.0 | 583.4 | |||||||||
| 10:25 | 19.7 | 24.9 | 33.2 | 1019.1 | 7.5 | SSE | 14.2 | SSE | 0.0 | 580.6 | |||||||||
| 10:30 | 19.9 | 24.9 | 32.8 | 1019.1 | 8.2 | S | 14.2 | SSW | 0.0 | 561.5 | |||||||||
| 10:35 | 19.7 | 24.5 | 32.6 | 1019.0 | 11.4 | SSE | 19.6 | SSE | 0.0 | 564.0 | |||||||||
| 10:40 | 19.1 | 23.7 | 35.2 | 1018.7 | 11.4 | SSE | 19.6 | SE | 0.0 | 591.7 | |||||||||
| 10:45 | 19.7 | 24.6 | 36.6 | 1018.9 | 8.2 | SSE | 19.6 | SSE | 0.0 | 600.9 | |||||||||
| 10:50 | 19.8 | 24.4 | 35.6 | 1018.7 | 8.7 | S | 19.6 | SSE | 0.0 | 575.9 | |||||||||
| 10:55 | 20.1 | 25.0 | 36.4 | 1019.1 | 7.9 | S | 16.9 | SSE | 0.0 | 628.6 | |||||||||
| 11:00 | 20.3 | 25.2 | 33.1 | 1018.8 | 8.8 | SSE | 16.9 | S | 0.0 | 597.8 | |||||||||
| 11:05 | 20.2 | 24.7 | 30.8 | 1018.9 | 10.8 | SSE | 16.9 | SSE | 0.0 | 625.2 | |||||||||
| 11:10 | 20.1 | 25.1 | 28.0 | 1018.8 | 8.6 | S | 19.6 | SSE | 0.0 | 605.1 | |||||||||
| 11:15 | 20.0 | 24.6 | 27.5 | 1019.0 | 12.2 | SSE | 19.6 | SSE | 0.0 | 558.0 | |||||||||
| 11:20 | 19.9 | 24.7 | 28.9 | 1018.7 | 9.4 | SE | 19.6 | SE | 0.0 | 602.3 | |||||||||
| 11:25 | 20.5 | 25.4 | 27.9 | 1018.7 | 11.3 | SE | 19.6 | ESE | 0.0 | 580.1 | |||||||||
| 11:30 | 20.6 | 25.3 | 31.5 | 1018.5 | 9.8 | SSE | 19.6 | SSE | 0.0 | 570.7 | |||||||||
| 11:35 | 20.6 | 25.4 | 30.0 | 1018.7 | 9.2 | SSE | 19.6 | SSW | 0.0 | 535.4 | |||||||||
| 11:40 | 20.7 | 25.9 | 28.5 | 1018.5 | 9.9 | SSE | 22.3 | S | 0.0 | 600.5 | |||||||||
| 11:45 | 20.5 | 25.6 | 29.6 | 1018.4 | 9.4 | SSE | 16.9 | SSE | 0.0 | 626.3 | |||||||||
| 11:50 | 20.5 | 25.1 | 31.1 | 1018.3 | 10.7 | SE | 16.9 | SSE | 0.0 | 662.8 | |||||||||
| 11:55 | 20.7 | 25.8 | 32.8 | 1018.3 | 8.6 | S | 22.3 | SE | 0.0 | 654.4 | |||||||||
| 12:00 | 20.8 | 26.0 | 32.8 | 1018.3 | 10.9 | SSE | 19.6 | SSE | 0.0 | 642.1 | |||||||||
| 12:05 | 20.8 | 25.5 | 31.2 | 1018.4 | 9.7 | SSE | 22.3 | SE | 0.0 | 696.7 | |||||||||
| 12:10 | 20.4 | 25.0 | 33.3 | 1018.3 | 10.7 | SSE | 16.9 | SSE | 0.0 | 676.9 | |||||||||
| 12:15 | 20.7 | 25.7 | 33.8 | 1018.1 | 7.6 | SSE | 16.9 | WSW | 0.0 | 681.0 | |||||||||
| 12:20 | 21.0 | 26.0 | 33.6 | 1018.2 | 8.1 | SE | 16.9 | SE | 0.0 | 678.6 | |||||||||
| 12:25 | 21.3 | 26.3 | 33.2 | 1018.1 | 8.7 | S | 16.9 | S | 0.0 | 676.1 | |||||||||
| 12:30 | 21.3 | 26.3 | 32.6 | 1018.1 | 10.1 | SSE | 16.9 | S | 0.0 | 619.7 | |||||||||
| 12:35 | 21.3 | 26.2 | 34.3 | 1018.1 | 9.8 | S | 19.6 | SSE | 0.0 | 631.1 | |||||||||
| 12:40 | 21.1 | 26.0 | 35.6 | 1018.1 | 11.5 | SE | 19.6 | SE | 0.0 | 655.6 | |||||||||
| 12:45 | 21.0 | 25.4 | 36.9 | 1018.1 | 10.2 | SE | 16.9 | SE | 0.0 | 677.0 | |||||||||
| 12:50 | 21.3 | 26.3 | 36.2 | 1018.1 | 8.7 | S | 19.6 | SSW | 0.0 | 568.9 | |||||||||
| 12:55 | 21.6 | 26.5 | 35.9 | 1018.1 | 9.7 | SSE | 22.3 | S | 0.0 | 576.1 | |||||||||
| 13:00 | 21.2 | 25.6 | 36.3 | 1018.0 | 12.1 | SSE | 22.3 | S | 0.0 | 615.3 | |||||||||
| 13:05 | 21.4 | 26.0 | 37.4 | 1018.0 | 7.1 | SE | 14.2 | ESE | 0.0 | 635.4 | |||||||||
| 13:10 | 21.6 | 25.9 | 36.5 | 1018.0 | 10.8 | SSE | 19.6 | S | 0.0 | 738.3 | |||||||||
| 13:15 | 21.4 | 25.5 | 37.3 | 1018.0 | 12.5 | SE | 22.3 | SSE | 0.0 | 678.2 | |||||||||
| 13:20 | 21.5 | 25.9 | 37.5 | 1017.8 | 8.2 | SE | 22.3 | S | 0.0 | 606.9 | |||||||||
| 13:25 | 21.7 | 26.0 | 37.4 | 1017.9 | 11.6 | SSE | 19.6 | SE | 0.0 | 588.0 | |||||||||
| 13:30 | 21.6 | 25.3 | 37.4 | 1017.8 | 9.9 | SSE | 19.6 | SE | 0.0 | 591.5 | |||||||||
| 13:35 | 21.8 | 25.9 | 37.2 | 1018.0 | 9.9 | SSE | 19.6 | SSW | 0.0 | 617.0 | |||||||||
| 13:40 | 21.5 | 25.3 | 37.5 | 1017.6 | 10.2 | SSE | 16.9 | SSE | 0.0 | 631.7 | |||||||||
| 13:45 | 21.7 | 25.9 | 37.7 | 1017.7 | 10.3 | SSE | 22.3 | SSE | 0.0 | 666.5 | |||||||||
| 13:50 | 21.4 | 25.0 | 38.1 | 1017.9 | 13.3 | SSE | 25.0 | SSE | 0.0 | 696.3 | |||||||||
| 13:55 | 21.4 | 25.3 | 38.4 | 1017.7 | 12.4 | SSE | 25.0 | SSE | 0.0 | 712.1 | |||||||||
| 14:00 | 21.1 | 24.8 | 38.5 | 1017.7 | 15.1 | SSE | 27.7 | S | 0.0 | 696.7 | |||||||||
| 14:05 | 20.9 | 24.7 | 39.4 | 1017.9 | 12.9 | SSE | 22.3 | SE | 0.0 | 667.8 | |||||||||
| 14:10 | 21.0 | 24.8 | 39.4 | 1017.8 | 14.1 | SSE | 27.7 | S | 0.0 | 626.0 | |||||||||
| 14:15 | 20.7 | 24.1 | 40.7 | 1017.8 | 14.9 | SSE | 25.0 | SSE | 0.0 | 639.0 | |||||||||
| 14:20 | 21.0 | 24.6 | 41.0 | 1017.6 | 12.8 | SE | 22.3 | SE | 0.0 | 639.5 | |||||||||
| 14:25 | 21.0 | 24.5 | 41.2 | 1017.7 | 13.7 | SE | 25.0 | SE | 0.0 | 661.4 | |||||||||
| 14:30 | 20.9 | 24.4 | 41.3 | 1017.6 | 12.3 | SSE | 22.3 | SE | 0.0 | 595.5 | |||||||||
| 14:35 | 20.8 | 24.3 | 42.2 | 1017.6 | 14.1 | SE | 22.3 | ESE | 0.0 | 585.7 | |||||||||
| 14:40 | 21.0 | 24.8 | 42.2 | 1017.8 | 10.3 | SE | 25.0 | ESE | 0.0 | 620.6 | |||||||||
| 14:45 | 21.0 | 24.8 | 42.3 | 1017.6 | 11.7 | SSE | 22.3 | SE | 0.0 | 622.1 | |||||||||
| 14:50 | 21.0 | 24.6 | 43.0 | 1017.4 | 12.2 | SE | 22.3 | SE | 0.0 | 538.2 | |||||||||
| 14:55 | 21.0 | 24.6 | 42.5 | 1017.5 | 10.9 | SSE | 25.0 | SE | 0.0 | 599.7 | |||||||||
| 15:00 | 21.0 | 24.4 | 43.1 | 1017.6 | 9.7 | SSE | 22.3 | SSE | 0.0 | 591.6 | |||||||||
| 15:05 | 20.9 | 24.2 | 43.2 | 1017.7 | 13.0 | SSE | 27.7 | S | 0.0 | 535.3 | |||||||||
| 15:10 | 20.7 | 24.1 | 44.0 | 1017.7 | 11.5 | SE | 25.0 | SSE | 0.0 | 532.9 | |||||||||
| 15:15 | 20.6 | 24.0 | 44.0 | 1017.7 | 12.1 | SSE | 19.6 | SSE | 0.0 | 511.3 | |||||||||
| 15:20 | 20.7 | 23.7 | 44.2 | 1017.7 | 11.2 | SSE | 19.6 | SSE | 0.0 | 506.5 | |||||||||
| 15:25 | 20.5 | 23.4 | 44.8 | 1017.7 | 11.8 | SSE | 22.3 | SE | 0.0 | 454.1 | |||||||||
| 15:30 | 20.4 | 23.3 | 46.0 | 1017.7 | 10.5 | SSE | 22.3 | SE | 0.0 | 482.5 | |||||||||
| 15:35 | 20.7 | 23.4 | 45.4 | 1017.7 | 11.1 | SSE | 22.3 | SSE | 0.0 | 465.4 | |||||||||
| 15:40 | 20.2 | 22.8 | 46.2 | 1017.7 | 14.4 | S | 25.0 | SSE | 0.0 | 425.3 | |||||||||
| 15:45 | 20.2 | 22.9 | 46.5 | 1017.6 | 10.0 | S | 19.6 | SSW | 0.0 | 415.5 | |||||||||
| 15:50 | 20.2 | 23.1 | 46.9 | 1017.6 | 10.4 | SSE | 22.3 | S | 0.0 | 411.0 | |||||||||
| 15:55 | 20.1 | 22.7 | 46.6 | 1017.6 | 11.4 | SSE | 19.6 | SSE | 0.0 | 367.5 | |||||||||
| 16:00 | 20.1 | 22.4 | 46.9 | 1017.7 | 10.7 | SSE | 19.6 | SSW | 0.0 | 393.2 | |||||||||
| 16:05 | 19.9 | 22.0 | 47.9 | 1017.9 | 9.7 | SE | 22.3 | SSE | 0.0 | 345.0 | |||||||||
| 16:10 | 20.1 | 22.3 | 47.9 | 1017.6 | 9.7 | SSE | 19.6 | SE | 0.0 | 324.3 | |||||||||
| 16:15 | 20.1 | 22.1 | 47.7 | 1017.7 | 9.7 | SE | 16.9 | ESE | 0.0 | 285.0 | |||||||||
| 16:20 | 19.9 | 21.6 | 48.4 | 1017.8 | 10.0 | SSE | 19.6 | S | 0.0 | 259.8 | |||||||||
| 16:25 | 19.7 | 21.3 | 49.3 | 1017.8 | 11.0 | SSE | 19.6 | SSE | 0.0 | 246.9 | |||||||||
| 16:30 | 19.5 | 21.0 | 50.5 | 1017.8 | 8.4 | SSE | 16.9 | S | 0.0 | 237.4 | |||||||||
| 16:35 | 19.7 | 21.2 | 50.5 | 1017.9 | 8.6 | S | 22.3 | SSE | 0.0 | 238.4 | |||||||||
| 16:40 | 19.6 | 20.9 | 50.9 | 1017.9 | 8.4 | SSE | 16.9 | SE | 0.0 | 221.6 | |||||||||
| 16:45 | 19.5 | 20.8 | 52.0 | 1018.0 | 9.5 | SE | 16.9 | SE | 0.0 | 201.4 | |||||||||
| 16:50 | 19.5 | 20.7 | 52.0 | 1017.9 | 9.8 | SE | 16.9 | SSE | 0.0 | 220.0 | |||||||||
| 16:55 | 19.5 | 20.5 | 52.0 | 1018.0 | 7.6 | SSE | 16.9 | SW | 0.0 | 227.8 | |||||||||
| 17:00 | 19.4 | 20.1 | 52.4 | 1018.1 | 10.2 | SSE | 22.3 | SE | 0.0 | 181.5 | |||||||||
| 17:05 | 19.1 | 19.8 | 53.2 | 1018.1 | 9.2 | SSE | 16.9 | SSE | 0.0 | 196.0 | |||||||||
| 17:10 | 19.0 | 19.6 | 53.3 | 1018.0 | 7.8 | SSE | 16.9 | SE | 0.0 | 167.5 | |||||||||
| 17:15 | 18.9 | 19.5 | 53.6 | 1018.0 | 8.9 | SSE | 16.9 | S | 0.0 | 153.4 | |||||||||
| 17:20 | 19.0 | 19.4 | 54.1 | 1018.1 | 7.2 | S | 16.9 | SSW | 0.0 | 149.8 | |||||||||
| 17:25 | 18.9 | 19.3 | 54.2 | 1018.1 | 5.9 | S | 14.2 | S | 0.0 | 116.2 | |||||||||
| 17:30 | 18.8 | 18.7 | 54.6 | 1018.2 | 4.9 | S | 11.5 | S | 0.0 | 28.4 | |||||||||
| 17:35 | 18.4 | 18.0 | 55.9 | 1018.2 | 6.6 | SSW | 14.2 | SSW | 0.0 | 17.2 | |||||||||
| 17:40 | 18.0 | 17.5 | 57.1 | 1018.4 | 5.0 | SW | 11.5 | SSW | 0.0 | 21.0 | |||||||||
| 17:45 | 17.8 | 17.0 | 58.0 | 1018.4 | 4.4 | SSW | 11.5 | S | 0.0 | 25.7 | |||||||||
| 17:50 | 17.6 | 16.6 | 58.9 | 1018.3 | 4.9 | SSW | 11.5 | SW | 0.0 | 22.9 | |||||||||
| 17:55 | 17.4 | 16.2 | 59.6 | 1018.4 | 3.3 | SSW | 8.8 | S | 0.0 | 22.0 | |||||||||
| 18:00 | 17.3 | 15.9 | 60.4 | 1018.4 | 2.1 | SSW | 8.8 | SSW | 0.0 | 19.6 | |||||||||
| 18:05 | 17.1 | 15.6 | 61.2 | 1018.5 | 1.5 | SSW | 8.8 | SW | 0.0 | 16.8 | |||||||||
| 18:10 | 16.9 | 15.3 | 62.0 | 1018.5 | 0.5 | S | 6.1 | SW | 0.0 | 12.9 | |||||||||
| 18:15 | 16.8 | 15.0 | 63.0 | 1018.5 | 2.0 | SSW | 6.1 | S | 0.0 | 1.0 | |||||||||
| 18:20 | 16.6 | 14.7 | 63.6 | 1018.6 | 3.9 | SW | 6.1 | WSW | 0.0 | 0.0 | |||||||||
| 18:25 | 16.3 | 14.4 | 64.3 | 1018.7 | 1.9 | SSW | 6.1 | SW | 0.0 | 0.2 | |||||||||
| 18:30 | 16.1 | 14.1 | 65.3 | 1018.7 | 1.3 | S | 6.1 | S | 0.0 | 0.0 | |||||||||
| 18:35 | 15.9 | 13.7 | 66.7 | 1018.8 | 0.0 | NNE | 0.0 | S | 0.0 | 0.0 | |||||||||
| Màxima | 21.8 | 26.5 | 95.5 | 1019.4 | 15.1 | SSE | 27.7 | S | 0.0 | 738.3 | |||||||||
| Mínima | 2.8 | 0.6 | 27.5 | 1017.4 | |||||||||||||||
| Total | 0.0 | ||||||||||||||||||